Speaks, Texas
Current Conditions -  °F | °C
As of 2:15 PM on Friday 21 Nov 2014 (Local Time) from K66R Reporting Station
Light Rain Light Rain  
Wind Chill: 20°   Ceiling: 1400
Heat Index: 20°   Visibility: 7mi
Dew Point: 20°   Wind: 7mph
Humidity: 96%   Direction: 120°ESE
Pressure: 30.04"   Gusts: NA
Location:  29.25°N, 96.7°W
Report Text: K66R 212015Z AUTO 12006KT 7SM -RA SCT009 BKN014 OVC027 21/20 A3004 RMK AO2 P0002 T02050199
Loading
Personal Weather Stations






























Interactive Weather Map New forecast layout! Learn more

10-Day Weather Forecast

Advertisements
Track Severe Weather on mobile